Time;durP1;ratioP1;P1;durP2;ratioP2;P2;SDS_P1;SDS_P2;PMS_P1;PMS_P2;Temp;Humidity;BMP_temperature;BMP_pressure;BME280_temperature;BME280_humidity;BME280_pressure;Samples;Min_cycle;Max_cycle;Signal;HPM_P1;HPM_P2
2021/07/18 00:01:52;;;;;;;11.52;9.48;;;25.40;99.90;;;;;;5080694;28;20402;-88
2021/07/18 00:04:18;;;;;;;10.48;9.35;;;25.40;99.90;;;;;;5095984;28;20028;-89
2021/07/18 00:06:44;;;;;;;11.88;9.65;;;25.40;99.90;;;;;;5079126;28;20035;-87
2021/07/18 00:09:10;;;;;;;11.02;9.55;;;25.40;99.90;;;;;;5078885;28;20052;-88
2021/07/18 00:11:36;;;;;;;11.45;9.52;;;25.40;99.90;;;;;;5095422;28;20077;-88
2021/07/18 00:14:03;;;;;;;12.68;10.60;;;25.40;99.90;;;;;;5095865;28;20028;-87
2021/07/18 00:16:28;;;;;;;10.80;9.30;;;25.40;99.90;;;;;;5096620;28;20056;-89
2021/07/18 00:18:54;;;;;;;10.90;9.70;;;25.40;99.90;;;;;;5079093;28;20554;-89
2021/07/18 00:21:20;;;;;;;11.27;9.32;;;25.40;99.90;;;;;;5078684;28;20062;-89
2021/07/18 00:23:52;;;;;;;12.13;10.00;;;25.40;99.90;;;;;;5095792;28;20028;-88
2021/07/18 00:26:17;;;;;;;13.23;11.27;;;25.40;99.90;;;;;;5095635;28;20385;-88
2021/07/18 00:28:43;;;;;;;13.40;11.02;;;25.40;99.90;;;;;;5096828;28;20043;-88
2021/07/18 00:31:09;;;;;;;12.73;10.75;;;25.40;99.90;;;;;;5095369;28;20473;-88
2021/07/18 00:33:35;;;;;;;13.15;10.98;;;25.40;99.90;;;;;;5078563;28;20024;-89
2021/07/18 00:36:01;;;;;;;13.77;11.35;;;25.40;99.90;;;;;;5095446;28;20534;-88
2021/07/18 00:38:27;;;;;;;11.93;10.55;;;25.40;99.90;;;;;;5077960;28;20066;-89
2021/07/18 00:40:52;;;;;;;12.45;10.38;;;25.40;99.90;;;;;;5078913;28;20047;-89
2021/07/18 00:43:18;;;;;;;13.80;11.35;;;25.40;99.90;;;;;;5080508;28;20024;-89
2021/07/18 00:45:44;;;;;;;12.70;10.90;;;25.40;99.90;;;;;;5062957;28;20028;-89
2021/07/18 00:48:10;;;;;;;12.93;10.88;;;25.40;99.90;;;;;;5081118;28;20470;-89
2021/07/18 00:50:37;;;;;;;12.98;11.15;;;25.40;99.90;;;;;;5098276;28;20469;-87
2021/07/18 00:53:03;;;;;;;12.32;10.80;;;25.40;99.90;;;;;;5065333;28;20040;-88
2021/07/18 00:55:28;;;;;;;12.50;10.38;;;25.40;99.90;;;;;;5080182;28;20379;-89
2021/07/18 00:57:54;;;;;;;14.43;11.80;;;25.40;99.90;;;;;;5078624;28;20477;-88
2021/07/18 01:00:20;;;;;;;12.82;10.80;;;25.40;99.90;;;;;;5078478;28;20462;-89
2021/07/18 01:02:46;;;;;;;13.40;11.95;;;25.40;99.90;;;;;;5077559;28;20031;-88
2021/07/18 01:05:17;;;;;;;13.40;11.23;;;25.40;99.90;;;;;;5096231;28;20481;-89
2021/07/18 01:07:42;;;;;;;13.48;11.32;;;25.40;99.90;;;;;;5094912;28;20054;-89
2021/07/18 01:10:09;;;;;;;12.90;11.23;;;25.40;99.90;;;;;;5094454;28;20048;-89
2021/07/18 01:12:35;;;;;;;14.13;11.60;;;25.40;99.90;;;;;;5096207;28;20019;-89
2021/07/18 01:15:01;;;;;;;12.90;11.40;;;25.40;99.90;;;;;;5098385;28;20424;-89
2021/07/18 01:17:28;;;;;;;14.77;12.77;;;25.40;99.90;;;;;;5096102;28;20494;-88
2021/07/18 01:19:54;;;;;;;12.20;10.75;;;25.40;99.90;;;;;;5077813;28;20161;-88
2021/07/18 01:22:21;;;;;;;12.82;10.85;;;25.40;99.90;;;;;;5094570;28;20074;-88
2021/07/18 01:24:47;;;;;;;14.18;12.15;;;25.40;99.90;;;;;;5094028;28;20028;-88
2021/07/18 01:27:13;;;;;;;13.70;11.32;;;25.40;99.90;;;;;;5094673;28;20043;-88
2021/07/18 01:29:42;;;;;;;13.35;11.52;;;25.40;99.90;;;;;;5095543;28;20034;-88
2021/07/18 01:32:08;;;;;;;14.82;12.18;;;25.40;99.90;;;;;;5077921;28;20389;-87
2021/07/18 01:34:34;;;;;;;12.63;11.15;;;25.40;99.90;;;;;;5077297;28;20124;-89
2021/07/18 01:36:59;;;;;;;12.77;11.13;;;25.40;99.90;;;;;;5077464;28;20028;-88
2021/07/18 01:39:25;;;;;;;12.60;11.10;;;25.40;99.90;;;;;;5077386;28;20024;-88
2021/07/18 01:41:54;;;;;;;14.15;12.00;;;25.40;99.90;;;;;;5076849;28;20371;-86
2021/07/18 01:44:20;;;;;;;13.20;11.65;;;25.40;99.90;;;;;;5098367;28;20028;-85
2021/07/18 01:46:46;;;;;;;12.23;10.45;;;25.40;99.90;;;;;;5096294;28;20054;-84
2021/07/18 01:49:12;;;;;;;12.27;10.68;;;25.40;99.90;;;;;;5098550;28;20020;-85
2021/07/18 01:51:38;;;;;;;12.93;11.10;;;25.40;99.90;;;;;;5078681;28;20494;-87
2021/07/18 01:54:05;;;;;;;13.52;11.70;;;25.40;99.90;;;;;;5094076;28;20024;-87
2021/07/18 01:56:31;;;;;;;11.82;10.57;;;25.30;99.90;;;;;;5095650;28;20028;-89
2021/07/18 01:58:57;;;;;;;13.55;11.75;;;25.40;99.90;;;;;;5098432;28;20050;-87
2021/07/18 02:01:28;;;;;;;13.38;11.27;;;25.40;99.90;;;;;;5078928;28;20066;-89
2021/07/18 02:03:55;;;;;;;12.38;10.48;;;25.30;99.90;;;;;;5094388;28;20031;-89
2021/07/18 02:06:22;;;;;;;12.80;10.50;;;25.30;99.90;;;;;;5077431;28;20097;-88
2021/07/18 02:08:59;;;;;;;12.85;10.80;;;25.40;99.90;;;;;;5076652;28;20056;-88
2021/07/18 02:11:27;;;;;;;12.25;10.60;;;25.40;99.90;;;;;;5093759;28;20032;-88
2021/07/18 02:13:55;;;;;;;12.73;10.82;;;25.40;99.90;;;;;;5076823;28;20102;-89
2021/07/18 02:16:21;;;;;;;11.70;10.27;;;25.30;99.90;;;;;;5093806;28;20031;-89
2021/07/18 02:18:48;;;;;;;12.50;11.15;;;25.40;99.90;;;;;;5076846;28;20086;-89
2021/07/18 02:21:18;;;;;;;12.77;10.57;;;25.40;99.90;;;;;;5076517;28;20473;-88
2021/07/18 02:23:44;;;;;;;11.93;10.52;;;25.30;99.90;;;;;;5094141;28;20496;-89
2021/07/18 02:26:10;;;;;;;12.38;10.60;;;25.40;99.90;;;;;;5093329;28;20028;-89
2021/07/18 02:28:36;;;;;;;10.85;9.60;;;25.40;99.90;;;;;;5093093;28;20021;-89
2021/07/18 02:31:04;;;;;;;12.40;10.45;;;25.30;99.90;;;;;;5092916;28;20440;-89
2021/07/18 02:33:31;;;;;;;11.50;10.30;;;25.30;99.90;;;;;;5093230;28;20120;-89
2021/07/18 02:35:58;;;;;;;12.68;10.30;;;25.30;99.90;;;;;;5093083;28;20032;-89
2021/07/18 02:38:24;;;;;;;11.98;10.20;;;25.40;99.90;;;;;;5093137;28;20088;-90
2021/07/18 02:40:50;;;;;;;11.75;10.15;;;25.40;99.90;;;;;;5076064;28;20496;-89
2021/07/18 02:43:16;;;;;;;11.48;9.95;;;25.40;99.90;;;;;;5076221;28;20024;-88
2021/07/18 02:45:41;;;;;;;12.27;10.95;;;25.40;99.90;;;;;;5093650;28;20418;-89
2021/07/18 02:48:08;;;;;;;11.57;10.25;;;25.30;99.90;;;;;;5059444;28;20092;-88
2021/07/18 02:50:34;;;;;;;10.73;9.55;;;25.30;99.90;;;;;;5075670;28;20036;-88
2021/07/18 02:52:59;;;;;;;11.60;10.00;;;25.30;99.90;;;;;;5093286;28;20493;-88
2021/07/18 02:55:25;;;;;;;10.85;9.57;;;25.30;99.90;;;;;;5075848;28;20028;-88
2021/07/18 02:57:51;;;;;;;11.52;10.32;;;25.30;99.90;;;;;;5075690;28;20035;-89
2021/07/18 03:00:19;;;;;;;11.55;9.88;;;25.30;99.90;;;;;;5092876;28;20036;-88
2021/07/18 03:02:45;;;;;;;12.05;9.82;;;25.30;99.90;;;;;;5095809;28;20435;-89
2021/07/18 03:05:12;;;;;;;12.02;9.43;;;25.40;99.90;;;;;;5097376;28;20051;-89
2021/07/18 03:07:39;;;;;;;11.23;9.68;;;25.30;99.90;;;;;;5095909;28;20028;-89
2021/07/18 03:10:06;;;;;;;9.60;8.35;;;25.40;99.90;;;;;;5092536;28;20048;-88
2021/07/18 03:12:32;;;;;;;10.70;9.27;;;25.40;99.90;;;;;;5092674;28;20462;-89
2021/07/18 03:15:04;;;;;;;11.07;9.70;;;25.30;99.90;;;;;;5093170;28;20024;-89
2021/07/18 03:17:30;;;;;;;10.50;9.10;;;25.40;99.90;;;;;;5093981;28;20111;-89
2021/07/18 03:19:57;;;;;;;9.63;8.55;;;25.30;99.90;;;;;;5092109;28;20132;-89
2021/07/18 03:22:24;;;;;;;9.77;8.45;;;25.40;99.90;;;;;;5092812;28;20054;-89
2021/07/18 03:24:50;;;;;;;11.00;9.50;;;25.30;99.90;;;;;;5093779;28;20473;-90
2021/07/18 03:27:16;;;;;;;9.57;8.57;;;25.30;99.90;;;;;;5075682;28;20025;-89
2021/07/18 03:29:42;;;;;;;11.52;9.30;;;25.30;99.90;;;;;;5092229;28;20185;-90
2021/07/18 03:32:07;;;;;;;10.98;9.43;;;25.30;99.90;;;;;;5092396;28;20525;-90
2021/07/18 03:34:33;;;;;;;9.93;8.63;;;25.30;99.90;;;;;;5092475;28;20493;-89
2021/07/18 03:36:59;;;;;;;10.52;9.05;;;25.30;99.90;;;;;;5075202;28;20039;-89
2021/07/18 03:39:27;;;;;;;11.65;9.27;;;25.30;99.90;;;;;;5075617;28;20032;-89
2021/07/18 03:41:52;;;;;;;9.38;8.13;;;25.30;99.90;;;;;;5091949;28;20111;-90
2021/07/18 03:44:18;;;;;;;9.77;8.77;;;25.30;99.90;;;;;;5058928;28;20097;-89
2021/07/18 03:46:44;;;;;;;9.57;8.27;;;25.30;99.90;;;;;;5092439;28;20039;-88
2021/07/18 03:49:11;;;;;;;9.90;8.88;;;25.30;99.90;;;;;;5058706;28;20024;-88
2021/07/18 03:51:37;;;;;;;10.73;9.10;;;25.30;99.90;;;;;;5092340;28;20036;-90
2021/07/18 03:54:02;;;;;;;9.43;8.05;;;25.30;99.90;;;;;;5075597;28;20058;-87
2021/07/18 03:56:28;;;;;;;8.80;7.82;;;25.30;99.90;;;;;;5092304;28;20035;-88
2021/07/18 03:58:54;;;;;;;10.73;8.60;;;25.30;99.90;;;;;;5092993;28;20034;-88
2021/07/18 04:01:20;;;;;;;8.43;7.50;;;25.30;99.90;;;;;;5060432;28;20036;-89
2021/07/18 04:03:49;;;;;;;8.93;7.88;;;25.30;99.90;;;;;;5092017;28;20034;-88
2021/07/18 04:06:18;;;;;;;8.48;7.60;;;25.30;99.90;;;;;;5093750;28;20024;-88
2021/07/18 04:08:44;;;;;;;8.77;7.68;;;25.30;99.90;;;;;;5075182;28;20135;-89
2021/07/18 04:11:11;;;;;;;8.90;7.82;;;25.30;99.90;;;;;;5092754;28;20415;-88
2021/07/18 04:13:37;;;;;;;8.68;7.70;;;25.30;99.90;;;;;;5076915;28;20090;-88
2021/07/18 04:16:03;;;;;;;8.30;7.35;;;25.30;99.90;;;;;;5076343;28;20043;-88
2021/07/18 04:18:29;;;;;;;9.18;7.40;;;25.30;99.90;;;;;;5092589;28;20056;-88
2021/07/18 04:20:55;;;;;;;7.80;7.00;;;25.30;99.90;;;;;;5061656;28;20359;-89
2021/07/18 04:23:21;;;;;;;8.52;7.53;;;25.30;99.90;;;;;;5079051;28;20469;-88
2021/07/18 04:25:47;;;;;;;7.78;6.93;;;25.30;99.90;;;;;;5095803;28;20466;-88
2021/07/18 04:28:13;;;;;;;8.25;6.97;;;25.30;99.90;;;;;;5066800;28;20086;-85
2021/07/18 04:30:39;;;;;;;8.07;7.15;;;25.30;99.90;;;;;;5101070;28;20063;-85
2021/07/18 04:33:05;;;;;;;7.97;7.18;;;25.30;99.90;;;;;;5066330;28;20032;-85
2021/07/18 04:35:31;;;;;;;7.95;6.65;;;25.30;99.90;;;;;;5082421;28;20093;-89
2021/07/18 04:37:57;;;;;;;7.68;6.75;;;25.30;99.90;;;;;;5095433;28;20098;-89
2021/07/18 04:40:23;;;;;;;6.90;6.20;;;25.30;99.90;;;;;;5078537;28;20222;-89
2021/07/18 04:42:49;;;;;;;6.93;6.20;;;25.30;99.90;;;;;;5096234;28;20473;-89
2021/07/18 04:45:15;;;;;;;6.57;5.88;;;25.30;99.90;;;;;;5095269;28;20023;-89
2021/07/18 04:47:47;;;;;;;6.88;6.13;;;25.30;99.90;;;;;;5078896;28;20085;-89
2021/07/18 04:50:14;;;;;;;8.38;6.18;;;25.30;99.90;;;;;;5095663;28;20051;-88
2021/07/18 04:52:43;;;;;;;7.35;6.07;;;25.30;99.90;;;;;;5097692;28;20024;-89
2021/07/18 04:55:10;;;;;;;7.80;6.53;;;25.30;99.90;;;;;;5081195;28;20036;-88
2021/07/18 04:57:36;;;;;;;7.05;6.05;;;25.30;99.90;;;;;;5078601;28;20084;-88
2021/07/18 05:00:11;;;;;;;6.75;6.05;;;25.30;99.90;;;;;;5078014;28;20462;-88
2021/07/18 05:02:38;;;;;;;;;;;25.30;99.90;;;;;;5095334;28;20107;-88
2021/07/18 05:05:05;;;;;;;6.40;5.75;;;25.30;99.90;;;;;;5095908;28;19904;-88
2021/07/18 05:07:31;;;;;;;7.65;6.32;;;25.30;99.90;;;;;;5061316;28;20032;-88
2021/07/18 05:09:57;;;;;;;6.20;5.35;;;25.30;99.90;;;;;;5077683;28;20044;-88
2021/07/18 05:12:23;;;;;;;5.82;5.10;;;25.30;99.90;;;;;;5077965;28;20039;-88
2021/07/18 05:14:49;;;;;;;6.15;5.35;;;25.30;99.90;;;;;;5094317;28;20519;-89
2021/07/18 05:17:15;;;;;;;6.13;5.53;;;25.30;99.90;;;;;;5094851;28;20028;-88
2021/07/18 05:19:41;;;;;;;5.90;5.30;;;25.30;99.90;;;;;;5078465;28;20077;-89
2021/07/18 05:22:12;;;;;;;5.82;5.22;;;25.30;99.90;;;;;;5095177;28;20031;-88
2021/07/18 05:24:38;;;;;;;5.32;4.82;;;25.30;99.90;;;;;;5061920;28;20021;-88
2021/07/18 05:27:06;;;;;;;5.68;5.07;;;25.30;99.90;;;;;;5077203;28;20031;-88
2021/07/18 05:29:32;;;;;;;5.63;5.00;;;25.30;99.90;;;;;;5077955;28;20024;-88
2021/07/18 05:31:57;;;;;;;5.93;5.10;;;25.30;99.90;;;;;;5093416;28;20043;-88
2021/07/18 05:34:23;;;;;;;5.45;4.68;;;25.30;99.90;;;;;;5077080;28;20035;-87
2021/07/18 05:36:48;;;;;;;5.00;4.50;;;25.30;99.90;;;;;;5094047;28;20024;-89
2021/07/18 05:39:14;;;;;;;5.07;4.57;;;25.30;99.90;;;;;;5077099;28;20046;-88
2021/07/18 05:41:42;;;;;;;5.78;4.72;;;25.40;99.90;;;;;;5060926;28;20028;-89
2021/07/18 05:44:08;;;;;;;4.13;3.55;;;25.30;99.90;;;;;;5060767;28;20035;-88
2021/07/18 05:46:33;;;;;;;5.57;4.40;;;25.40;99.90;;;;;;5094214;28;20484;-88
2021/07/18 05:48:59;;;;;;;4.57;4.18;;;25.30;99.90;;;;;;5093522;28;20042;-88
2021/07/18 05:51:25;;;;;;;4.82;4.32;;;25.40;99.90;;;;;;5076983;28;20040;-88
2021/07/18 05:53:50;;;;;;;6.13;4.47;;;25.40;99.90;;;;;;5094008;28;20539;-88
2021/07/18 05:56:16;;;;;;;4.40;4.00;;;25.40;99.90;;;;;;5076878;28;20073;-88
2021/07/18 05:58:42;;;;;;;4.35;3.92;;;25.40;99.90;;;;;;5060616;28;20028;-88
2021/07/18 06:01:07;;;;;;;4.55;4.15;;;25.40;99.90;;;;;;5076620;28;20043;-88
2021/07/18 06:03:33;;;;;;;4.10;3.70;;;25.40;99.90;;;;;;5060113;28;20031;-88
2021/07/18 06:06:00;;;;;;;4.40;4.00;;;25.40;99.90;;;;;;5093257;28;20028;-88
2021/07/18 06:08:25;;;;;;;3.80;3.38;;;25.40;99.90;;;;;;5078332;28;20546;-88
2021/07/18 06:10:51;;;;;;;3.72;3.28;;;25.40;99.90;;;;;;5096950;28;20040;-88
2021/07/18 06:13:17;;;;;;;4.47;3.80;;;25.40;99.90;;;;;;5114859;28;20104;-88
2021/07/18 06:15:42;;;;;;;3.95;3.47;;;25.40;99.90;;;;;;5096971;28;20070;-88
2021/07/18 06:18:08;;;;;;;4.20;3.80;;;25.40;99.90;;;;;;5079859;28;20122;-88
2021/07/18 06:20:38;;;;;;;3.83;3.20;;;25.40;99.90;;;;;;5097082;28;20385;-88
2021/07/18 06:23:05;;;;;;;4.10;3.67;;;25.40;99.90;;;;;;5096997;28;20032;-88
2021/07/18 06:25:31;;;;;;;4.55;3.85;;;25.40;99.90;;;;;;5114286;28;20104;-87
2021/07/18 06:27:57;;;;;;;4.30;3.65;;;25.50;99.90;;;;;;5103420;28;20067;-88
2021/07/18 06:30:22;;;;;;;3.75;3.20;;;25.50;99.90;;;;;;5115401;28;20036;-88
2021/07/18 06:32:48;;;;;;;3.63;3.33;;;25.50;99.90;;;;;;5079519;28;20035;-89
2021/07/18 06:35:14;;;;;;;3.55;3.25;;;25.50;99.90;;;;;;5113833;28;20023;-88
2021/07/18 06:37:40;;;;;;;3.67;3.30;;;25.50;99.90;;;;;;5113925;28;20118;-88
2021/07/18 06:40:06;;;;;;;3.58;3.25;;;25.50;99.90;;;;;;5079565;28;20392;-88
2021/07/18 06:42:32;;;;;;;3.25;2.95;;;25.50;99.90;;;;;;5123627;28;20034;-88
2021/07/18 06:44:59;;;;;;;3.13;2.83;;;25.50;99.90;;;;;;5130127;28;20031;-88
2021/07/18 06:47:26;;;;;;;3.88;3.08;;;25.50;99.90;;;;;;5130858;27;20035;-88
2021/07/18 06:49:52;;;;;;;3.63;3.08;;;25.50;99.90;;;;;;5096423;28;20491;-88
2021/07/18 06:52:18;;;;;;;3.10;2.80;;;25.50;99.90;;;;;;5079188;28;20146;-88
2021/07/18 06:54:43;;;;;;;2.60;2.40;;;25.50;99.90;;;;;;5096418;28;20063;-88
2021/07/18 06:57:09;;;;;;;3.08;2.78;;;25.50;99.90;;;;;;5079300;28;20415;-88
2021/07/18 06:59:35;;;;;;;3.10;2.58;;;25.60;99.90;;;;;;5096027;28;20408;-88
2021/07/18 07:02:00;;;;;;;2.92;2.63;;;25.60;99.90;;;;;;5096165;28;20024;-88
2021/07/18 07:04:27;;;;;;;2.70;2.50;;;25.50;99.90;;;;;;5079842;28;20097;-88
2021/07/18 07:06:53;;;;;;;2.92;2.63;;;25.50;99.90;;;;;;5096145;28;20036;-89
2021/07/18 07:09:19;;;;;;;2.70;2.47;;;25.60;99.90;;;;;;5095323;28;20052;-89
2021/07/18 07:11:44;;;;;;;2.65;2.45;;;25.60;99.90;;;;;;5096860;28;20059;-86
2021/07/18 07:14:10;;;;;;;2.40;2.20;;;25.60;99.90;;;;;;5113923;28;20473;-85
2021/07/18 07:16:36;;;;;;;2.72;2.47;;;25.60;99.90;;;;;;5113967;28;20046;-85
2021/07/18 07:19:02;;;;;;;2.65;2.40;;;25.60;99.90;;;;;;5079594;28;20031;-86
2021/07/18 07:21:28;;;;;;;2.60;2.40;;;25.60;99.90;;;;;;5112865;28;20044;-88
2021/07/18 07:23:54;;;;;;;2.95;2.35;;;25.60;99.90;;;;;;5112933;28;20027;-87
2021/07/18 07:26:22;;;;;;;2.60;2.40;;;25.60;99.90;;;;;;5112727;28;20027;-89
2021/07/18 07:28:48;;;;;;;2.10;1.90;;;25.60;99.90;;;;;;5113885;28;20466;-90
2021/07/18 07:31:13;;;;;;;2.47;2.28;;;25.60;99.90;;;;;;5111900;28;20168;-87
2021/07/18 07:33:39;;;;;;;2.40;2.20;;;25.60;99.90;;;;;;5112524;28;20031;-88
2021/07/18 07:36:05;;;;;;;2.67;2.20;;;25.60;99.90;;;;;;5096586;28;20077;-89
2021/07/18 07:38:32;;;;;;;2.38;2.15;;;25.70;99.90;;;;;;5096225;28;20028;-86
2021/07/18 07:40:58;;;;;;;2.20;2.00;;;25.60;99.90;;;;;;5113459;28;20031;-87
2021/07/18 07:43:24;;;;;;;2.42;2.08;;;25.60;99.90;;;;;;5111323;28;20381;-87
2021/07/18 07:45:50;;;;;;;2.30;2.05;;;25.70;99.90;;;;;;5112588;28;20027;-87
2021/07/18 07:48:16;;;;;;;1.98;1.77;;;25.70;99.90;;;;;;5095338;28;20119;-89
2021/07/18 07:50:42;;;;;;;2.35;2.05;;;25.70;99.90;;;;;;5095400;28;20122;-88
2021/07/18 07:53:08;;;;;;;3.22;2.05;;;25.70;99.90;;;;;;5095781;28;20035;-88
2021/07/18 07:55:34;;;;;;;2.20;2.00;;;25.70;99.90;;;;;;5116405;28;20035;-88
2021/07/18 07:58:00;;;;;;;1.92;1.60;;;25.70;99.90;;;;;;5116085;28;20055;-88
2021/07/18 08:00:26;;;;;;;1.85;1.75;;;25.70;99.90;;;;;;5116943;28;20024;-88
2021/07/18 08:02:52;;;;;;;1.98;1.75;;;25.70;99.90;;;;;;5116390;28;20434;-88
2021/07/18 08:05:19;;;;;;;2.00;1.73;;;25.70;99.90;;;;;;5098855;28;20030;-89
2021/07/18 08:07:45;;;;;;;2.25;1.73;;;25.70;99.90;;;;;;5115877;28;20028;-88
2021/07/18 08:10:16;;;;;;;1.85;1.75;;;25.70;99.90;;;;;;5098140;28;20044;-89
2021/07/18 08:12:43;;;;;;;2.10;1.90;;;25.70;99.90;;;;;;5116890;28;20024;-88
2021/07/18 08:15:12;;;;;;;2.00;1.85;;;25.70;99.90;;;;;;5116594;28;20032;-89
2021/07/18 08:17:39;;;;;;;1.88;1.52;;;25.70;99.90;;;;;;5115476;28;20080;-88
2021/07/18 08:20:07;;;;;;;1.85;1.55;;;25.70;99.90;;;;;;5115633;28;20546;-88
2021/07/18 08:22:33;;;;;;;2.13;1.63;;;25.70;99.90;;;;;;5115624;28;20110;-88
2021/07/18 08:24:59;;;;;;;2.00;1.80;;;25.70;99.90;;;;;;5098405;28;20520;-89
2021/07/18 08:27:24;;;;;;;1.70;1.60;;;25.70;99.90;;;;;;5115235;28;20027;-88
2021/07/18 08:29:50;;;;;;;1.55;1.45;;;25.70;99.90;;;;;;5116778;28;20026;-88
2021/07/18 08:32:16;;;;;;;1.60;1.50;;;25.70;99.90;;;;;;5098366;28;20028;-88
2021/07/18 08:34:41;;;;;;;1.50;1.40;;;25.70;99.90;;;;;;5117431;28;20034;-87
2021/07/18 08:37:07;;;;;;;1.40;1.30;;;25.80;99.90;;;;;;5100983;28;20036;-86
2021/07/18 08:39:33;;;;;;;1.60;1.50;;;25.80;99.90;;;;;;5115168;28;20515;-87
2021/07/18 08:41:59;;;;;;;1.95;1.60;;;25.70;99.90;;;;;;5116213;28;20530;-87
2021/07/18 08:44:25;;;;;;;1.65;1.40;;;25.80;99.90;;;;;;5099482;28;20031;-88
2021/07/18 08:46:51;;;;;;;2.10;1.88;;;25.70;99.90;;;;;;5082130;28;20124;-87
2021/07/18 08:49:19;;;;;;;1.90;1.75;;;25.80;99.90;;;;;;5115051;28;20488;-88
2021/07/18 08:51:45;;;;;;;1.45;1.35;;;25.80;99.90;;;;;;5115124;28;20110;-87
2021/07/18 08:54:11;;;;;;;1.80;1.50;;;25.80;99.90;;;;;;5114939;28;20493;-88
2021/07/18 08:56:36;;;;;;;1.65;1.55;;;25.80;99.90;;;;;;5116649;28;20488;-88
2021/07/18 08:59:10;;;;;;;1.80;1.67;;;25.80;99.90;;;;;;5116273;28;20035;-89
2021/07/18 09:01:41;;;;;;;1.73;1.63;;;25.80;99.90;;;;;;5115041;28;20358;-88
2021/07/18 09:04:08;;;;;;;1.52;1.42;;;25.80;99.90;;;;;;5115212;28;20027;-87
2021/07/18 09:06:44;;;;;;;1.60;1.40;;;25.80;99.90;;;;;;5113869;28;20039;-87
2021/07/18 09:09:14;;;;;;;1.70;1.60;;;25.80;99.90;;;;;;5114588;28;20055;-87
2021/07/18 09:11:42;;;;;;;1.33;1.20;;;25.80;99.90;;;;;;5098077;28;20096;-87
2021/07/18 09:14:09;;;;;;;1.60;1.50;;;25.80;99.90;;;;;;5114707;28;20161;-89
2021/07/18 09:16:37;;;;;;;1.45;1.35;;;25.80;99.90;;;;;;5115495;28;20149;-88
2021/07/18 09:19:23;;;;;;;1.60;1.50;;;25.80;99.90;;;;;;5113757;28;20019;-87
2021/07/18 09:21:57;;;;;;;2.00;1.70;;;25.80;99.90;;;;;;5115659;28;20035;-88
2021/07/18 09:24:25;;;;;;;1.92;1.73;;;25.80;99.90;;;;;;5114170;28;20049;-88
2021/07/18 09:27:04;;;;;;;2.42;1.80;;;25.80;99.90;;;;;;5097824;28;20035;-88
2021/07/18 09:29:30;;;;;;;1.85;1.75;;;25.80;99.90;;;;;;5113846;28;20080;-88
2021/07/18 09:32:11;;;;;;;2.10;1.67;;;25.80;99.90;;;;;;5097505;28;20067;-88
2021/07/18 09:34:42;;;;;;;2.50;2.13;;;25.80;99.90;;;;;;5113949;28;20028;-88
2021/07/18 09:37:14;;;;;;;2.45;2.03;;;25.70;99.90;;;;;;5115526;28;20030;-87
2021/07/18 09:39:41;;;;;;;2.65;2.05;;;25.80;99.90;;;;;;5115358;28;20048;-88
2021/07/18 09:42:07;;;;;;;2.15;1.85;;;25.70;99.90;;;;;;5114103;28;20388;-89
2021/07/18 09:44:41;;;;;;;1.48;1.38;;;25.70;99.90;;;;;;5113865;28;20119;-87
2021/07/18 09:47:07;;;;;;;2.00;1.80;;;25.70;99.90;;;;;;5114878;28;20020;-86
2021/07/18 09:49:36;;;;;;;1.67;1.40;;;25.80;99.90;;;;;;5114158;28;20451;-87
2021/07/18 09:52:21;;;;;;;1.40;1.25;;;25.80;99.90;;;;;;5114226;28;20423;-88
2021/07/18 09:54:50;;;;;;;1.70;1.58;;;25.80;99.90;;;;;;5113863;28;20026;-87
2021/07/18 09:57:30;;;;;;;1.45;1.35;;;25.80;99.90;;;;;;5116609;28;20032;-85
2021/07/18 09:59:56;;;;;;;1.73;1.40;;;25.80;99.90;;;;;;5116780;28;20469;-84
2021/07/18 10:02:34;;;;;;;2.10;1.17;;;25.90;99.90;;;;;;5097964;28;20473;-85
2021/07/18 10:05:00;;;;;;;1.90;1.33;;;25.80;99.90;;;;;;5117530;28;20073;-86
2021/07/18 10:07:41;;;;;;;1.20;1.10;;;25.90;99.90;;;;;;5099889;28;20028;-86
2021/07/18 10:10:09;;;;;;;1.33;1.20;;;25.80;99.90;;;;;;5118695;28;20139;-87
2021/07/18 10:12:35;;;;;;;2.22;1.30;;;25.80;99.90;;;;;;5099537;28;20476;-88
2021/07/18 10:15:01;;;;;;;1.52;1.27;;;25.90;99.90;;;;;;5082943;28;20057;-87
2021/07/18 10:17:36;;;;;;;1.73;1.50;;;25.90;99.90;;;;;;5101542;28;20081;-87
2021/07/18 10:20:06;;;;;;;1.23;1.10;;;25.80;99.90;;;;;;5117309;28;20079;-86
2021/07/18 10:22:32;;;;;;;1.50;1.30;;;25.80;99.90;;;;;;5120878;28;20024;-88
2021/07/18 10:24:58;;;;;;;1.55;1.40;;;25.80;99.90;;;;;;5113842;28;20030;-87
2021/07/18 10:27:23;;;;;;;1.13;1.00;;;25.80;99.90;;;;;;5119110;28;20031;-89
2021/07/18 10:29:52;;;;;;;1.20;1.00;;;25.90;99.90;;;;;;5080593;28;20027;-88
2021/07/18 10:32:21;;;;;;;1.45;1.20;;;25.80;99.90;;;;;;5114109;28;20024;-89
2021/07/18 10:34:51;;;;;;;2.13;1.25;;;25.80;99.90;;;;;;5114485;28;20055;-88
2021/07/18 10:37:17;;;;;;;1.75;1.25;;;25.80;99.90;;;;;;5097019;28;20036;-88
2021/07/18 10:39:44;;;;;;;1.23;1.10;;;25.80;99.90;;;;;;5113787;28;20056;-87
2021/07/18 10:42:29;;;;;;;1.20;1.10;;;25.80;99.90;;;;;;5114065;28;20058;-87
2021/07/18 10:44:55;;;;;;;1.55;1.13;;;25.90;99.90;;;;;;5115458;28;20027;-88
2021/07/18 10:47:21;;;;;;;0.95;0.95;;;25.90;99.90;;;;;;5096329;28;20126;-88
2021/07/18 10:49:51;;;;;;;1.13;1.02;;;25.90;99.90;;;;;;5112949;28;20089;-88
2021/07/18 10:52:17;;;;;;;1.20;1.10;;;25.90;99.90;;;;;;5114682;28;20051;-88
2021/07/18 10:54:43;;;;;;;1.83;1.25;;;25.90;99.90;;;;;;5096608;28;20044;-88
2021/07/18 10:57:32;;;;;;;1.25;1.00;;;25.90;99.90;;;;;;5081240;28;20035;-87
2021/07/18 11:00:26;;;;;;;1.23;1.00;;;25.90;99.90;;;;;;5113969;28;20077;-87
2021/07/18 11:03:32;;;;;;;1.38;1.02;;;25.90;99.90;;;;;;5114510;28;20107;-88
2021/07/18 11:06:19;;;;;;;1.27;1.05;;;25.90;99.90;;;;;;5102603;28;20511;-88
2021/07/18 11:09:13;;;;;;;1.45;1.15;;;25.90;99.90;;;;;;5130607;27;20028;-88
2021/07/18 11:11:48;;;;;;;0.80;0.70;;;25.90;99.90;;;;;;5096813;28;20517;-87
2021/07/18 11:14:36;;;;;;;1.23;0.95;;;25.90;99.90;;;;;;5079753;28;20685;-88
2021/07/18 11:17:04;;;;;;;1.00;0.90;;;25.90;99.90;;;;;;5113297;28;20069;-88
2021/07/18 11:19:39;;;;;;;0.90;0.80;;;25.90;99.90;;;;;;5112765;28;20024;-89
2021/07/18 11:22:06;;;;;;;1.08;0.93;;;25.90;99.90;;;;;;5112905;28;20035;-86
2021/07/18 11:24:52;;;;;;;1.38;1.00;;;25.90;99.90;;;;;;5112581;28;20023;-88
2021/07/18 11:27:31;;;;;;;1.17;1.08;;;25.90;99.90;;;;;;5114306;28;20024;-88
2021/07/18 11:29:59;;;;;;;1.00;0.90;;;26.00;99.90;;;;;;5116749;28;20567;-87
2021/07/18 11:32:33;;;;;;;0.68;0.60;;;26.00;99.90;;;;;;5116896;28;20034;-87
2021/07/18 11:35:00;;;;;;;0.60;0.60;;;25.90;99.90;;;;;;5117067;28;20024;-88
2021/07/18 11:37:29;;;;;;;0.70;0.70;;;26.00;99.90;;;;;;5083527;28;20039;-88
2021/07/18 11:40:04;;;;;;;0.98;0.85;;;26.00;99.90;;;;;;5116915;28;20403;-89
2021/07/18 11:42:30;;;;;;;0.80;0.80;;;26.00;99.90;;;;;;5117916;28;20027;-88
2021/07/18 11:44:55;;;;;;;0.80;0.80;;;26.00;99.90;;;;;;5117045;28;20020;-88
2021/07/18 11:47:23;;;;;;;0.70;0.70;;;26.00;99.90;;;;;;5117368;28;20485;-88
2021/07/18 11:49:51;;;;;;;0.70;0.70;;;26.00;99.90;;;;;;5118187;28;20487;-87
2021/07/18 11:52:19;;;;;;;0.63;0.63;;;26.00;99.90;;;;;;5118071;28;20031;-87
2021/07/18 11:54:45;;;;;;;0.70;0.70;;;26.10;99.90;;;;;;5099388;28;20024;-88
2021/07/18 11:57:14;;;;;;;0.75;0.70;;;26.00;99.90;;;;;;5099954;28;20059;-89
2021/07/18 11:59:42;;;;;;;0.60;0.60;;;26.00;99.90;;;;;;5116631;28;20035;-88
2021/07/18 12:02:12;;;;;;;1.48;0.80;;;26.10;99.90;;;;;;5117596;28;20074;-88
2021/07/18 12:04:40;;;;;;;0.75;0.75;;;26.00;99.90;;;;;;5117785;28;20362;-86
2021/07/18 12:07:07;;;;;;;0.88;0.80;;;26.00;99.90;;;;;;5117224;28;20028;-87
2021/07/18 12:09:44;;;;;;;0.70;0.70;;;26.10;99.90;;;;;;5098660;28;20154;-87
2021/07/18 12:12:16;;;;;;;0.70;0.70;;;26.10;99.90;;;;;;5116150;28;20031;-87
2021/07/18 12:14:42;;;;;;;0.80;0.80;;;26.10;99.90;;;;;;5116112;28;20028;-88
2021/07/18 12:17:10;;;;;;;0.82;0.82;;;26.10;99.90;;;;;;5116240;28;20392;-86
2021/07/18 12:19:37;;;;;;;0.80;0.80;;;26.10;99.90;;;;;;5116478;28;20385;-86
2021/07/18 12:22:09;;;;;;;0.70;0.70;;;26.00;99.90;;;;;;5099112;28;20039;-86
2021/07/18 12:24:37;;;;;;;0.77;0.77;;;26.10;99.90;;;;;;5116136;28;20051;-87
2021/07/18 12:27:09;;;;;;;0.70;0.70;;;26.10;99.90;;;;;;5099427;28;20027;-86
2021/07/18 12:29:39;;;;;;;0.80;0.80;;;26.10;99.90;;;;;;5117351;27;20015;-87
2021/07/18 12:32:07;;;;;;;0.95;0.75;;;26.10;99.90;;;;;;5116917;28;20039;-86
2021/07/18 12:34:36;;;;;;;0.80;0.80;;;26.10;99.90;;;;;;5099071;28;20039;-91
2021/07/18 12:37:05;;;;;;;0.90;0.90;;;26.10;99.90;;;;;;5115862;28;20385;-86
2021/07/18 12:39:42;;;;;;;0.80;0.80;;;26.10;99.90;;;;;;5116886;28;20031;-85
2021/07/18 12:42:27;;;;;;;0.80;0.80;;;26.10;99.90;;;;;;5116912;28;20054;-87
2021/07/18 12:45:00;;;;;;;0.85;0.85;;;26.10;99.90;;;;;;5115191;28;20023;-87
2021/07/18 12:47:39;;;;;;;0.60;0.60;;;26.00;99.90;;;;;;5116481;28;20020;-86